createdAt,value
2018-05-24T00:00:27.189Z,60.27
2018-05-24T00:01:27.185Z,60.08
2018-05-24T00:02:27.224Z,60.46
2018-05-24T00:03:27.269Z,60.75
2018-05-24T00:04:48.338Z,60.11
2018-05-24T00:05:27.321Z,60.37
2018-05-24T00:06:27.350Z,60.66
2018-05-24T00:07:27.379Z,60.17
2018-05-24T00:08:27.414Z,59.50
2018-05-24T00:09:27.452Z,61.33
2018-05-24T00:10:48.485Z,60.27
2018-05-24T00:11:27.498Z,60.08
2018-05-24T00:12:27.582Z,59.99
2018-05-24T00:13:27.577Z,60.46
2018-05-24T00:14:27.732Z,60.27
2018-05-24T00:15:27.620Z,60.46
2018-05-24T00:16:48.666Z,60.17
2018-05-24T00:17:27.672Z,59.89
2018-05-24T00:18:27.683Z,60.27
2018-05-24T00:19:27.727Z,60.24
2018-05-24T00:20:27.761Z,60.24
2018-05-24T00:21:27.811Z,61.23
2018-05-24T00:22:48.841Z,60.14
2018-05-24T00:23:27.862Z,60.56
2018-05-24T00:24:27.903Z,60.56
2018-05-24T00:25:27.908Z,61.04
2018-05-24T00:26:27.917Z,60.34
2018-05-24T00:27:27.949Z,60.53
2018-05-24T00:28:49.016Z,61.11
2018-05-24T00:29:28.004Z,60.72
2018-05-24T00:30:28.049Z,60.91
2018-05-24T00:31:28.074Z,61.11
2018-05-24T00:32:28.090Z,60.91
2018-05-24T00:33:28.131Z,60.91
2018-05-24T00:34:49.170Z,61.97
2018-05-24T00:35:28.221Z,61.30
2018-05-24T00:36:28.295Z,61.11
2018-05-24T00:37:28.241Z,60.63
2018-05-24T00:38:28.267Z,60.82
2018-05-24T00:39:28.305Z,60.91
2018-05-24T00:40:49.352Z,61.20
2018-05-24T00:41:28.366Z,60.82
2018-05-24T00:42:28.403Z,60.82
2018-05-24T00:43:28.474Z,60.91
2018-05-24T00:44:28.455Z,60.05
2018-05-24T00:45:28.494Z,60.82
2018-05-24T00:46:49.532Z,60.24
2018-05-24T00:47:28.564Z,60.72
2018-05-24T00:48:28.572Z,60.14
2018-05-24T00:49:28.614Z,60.82
2018-05-24T00:50:28.636Z,60.91
2018-05-24T00:51:28.680Z,60.53
2018-05-24T00:52:49.694Z,60.82
2018-05-24T00:53:28.716Z,60.72
2018-05-24T00:54:28.734Z,60.91
2018-05-24T00:55:28.782Z,60.72
2018-05-24T00:56:28.792Z,61.11
2018-05-24T00:57:28.839Z,61.11
2018-05-24T00:58:49.883Z,59.95
2018-05-24T00:59:28.907Z,60.63
2018-05-24T01:00:28.908Z,61.01
2018-05-24T01:01:28.962Z,61.01
2018-05-24T01:02:29.039Z,60.82
2018-05-24T01:03:29.004Z,60.91
2018-05-24T01:04:50.065Z,60.72
2018-05-24T01:05:29.070Z,61.01
2018-05-24T01:06:29.106Z,60.91
2018-05-24T01:07:29.169Z,61.01
2018-05-24T01:08:29.145Z,60.53
2018-05-24T01:09:29.184Z,61.01
2018-05-24T01:10:50.229Z,60.91
2018-05-24T01:11:29.244Z,60.72
2018-05-24T01:12:29.270Z,60.91
2018-05-24T01:13:29.321Z,60.82
2018-05-24T01:14:29.339Z,61.97
2018-05-24T01:15:29.376Z,60.63
2018-05-24T01:16:50.402Z,60.43
2018-05-24T01:17:29.411Z,60.88
2018-05-24T01:18:29.441Z,61.08
2018-05-24T01:19:29.479Z,61.94
2018-05-24T01:20:29.514Z,61.27
2018-05-24T01:21:29.523Z,60.69
2018-05-24T01:22:50.570Z,61.36
2018-05-24T01:23:29.583Z,61.65
2018-05-24T01:24:29.643Z,61.27
2018-05-24T01:25:29.765Z,62.23
2018-05-24T01:26:29.682Z,61.27
2018-05-24T01:27:29.787Z,62.04
2018-05-24T01:28:50.759Z,61.75
2018-05-24T01:29:29.768Z,61.36
2018-05-24T01:30:29.787Z,61.36
2018-05-24T01:31:29.814Z,61.46
2018-05-24T01:32:29.858Z,61.55
2018-05-24T01:33:29.879Z,61.30
2018-05-24T01:34:50.941Z,61.36
2018-05-24T01:35:29.944Z,61.36
2018-05-24T01:36:30.048Z,61.84
2018-05-24T01:37:29.991Z,61.84
2018-05-24T01:38:30.028Z,61.17
2018-05-24T01:39:30.083Z,61.75
2018-05-24T01:40:51.108Z,61.94
2018-05-24T01:41:30.104Z,62.04
2018-05-24T01:42:30.207Z,61.27
2018-05-24T01:43:30.171Z,62.23
2018-05-24T01:44:30.207Z,62.32
2018-05-24T01:45:30.247Z,62.13
2018-05-24T01:46:51.286Z,61.55
2018-05-24T01:47:30.312Z,62.32
2018-05-24T01:48:30.311Z,62.23
2018-05-24T01:49:30.345Z,62.32
2018-05-24T01:50:30.384Z,62.42
2018-05-24T01:51:30.397Z,61.75
2018-05-24T01:52:51.460Z,62.04
2018-05-24T01:53:30.474Z,62.23
2018-05-24T01:54:30.489Z,62.42
2018-05-24T01:55:30.523Z,63.38
2018-05-24T01:56:30.545Z,63.09
2018-05-24T01:57:30.577Z,62.13
2018-05-24T01:58:51.606Z,62.04
2018-05-24T01:59:30.622Z,62.23
2018-05-24T02:00:30.649Z,62.71
2018-05-24T02:01:30.712Z,62.23
2018-05-24T02:02:30.726Z,62.39
2018-05-24T02:03:30.752Z,62.96
2018-05-24T02:04:51.829Z,62.96
2018-05-24T02:05:30.803Z,62.96
2018-05-24T02:06:30.854Z,63.25
2018-05-24T02:07:30.858Z,62.96
2018-05-24T02:08:30.887Z,62.58
2018-05-24T02:09:30.912Z,63.28
2018-05-24T02:10:51.966Z,62.99
2018-05-24T02:11:30.982Z,62.87
2018-05-24T02:12:31.034Z,63.06
2018-05-24T02:13:31.025Z,63.16
2018-05-24T02:14:31.077Z,63.54
2018-05-24T02:15:31.110Z,64.25
2018-05-24T02:16:52.152Z,64.15
2018-05-24T02:17:31.157Z,63.06
2018-05-24T02:18:31.173Z,63.16
2018-05-24T02:19:31.209Z,63.35
2018-05-24T02:20:31.226Z,63.67
2018-05-24T02:21:31.258Z,63.76
2018-05-24T02:22:52.301Z,63.45
2018-05-24T02:23:31.314Z,63.35
2018-05-24T02:24:31.346Z,63.73
2018-05-24T02:25:31.391Z,63.54
2018-05-24T02:26:31.412Z,63.45
2018-05-24T02:27:31.437Z,63.35
2018-05-24T02:28:52.468Z,64.50
2018-05-24T02:29:31.498Z,63.64
2018-05-24T02:30:31.526Z,64.22
2018-05-24T02:31:31.542Z,64.40
2018-05-24T02:32:31.572Z,64.31
2018-05-24T02:33:31.630Z,64.40
2018-05-24T02:34:52.656Z,64.59
2018-05-24T02:35:31.659Z,64.89
2018-05-24T02:36:31.814Z,64.22
2018-05-24T02:37:31.740Z,64.02
2018-05-24T02:38:31.766Z,64.59
2018-05-24T02:39:31.774Z,64.31
2018-05-24T02:40:52.833Z,64.31
2018-05-24T02:41:31.847Z,64.59
2018-05-24T02:42:31.928Z,64.79
2018-05-24T02:43:31.896Z,64.12
2018-05-24T02:44:31.923Z,65.08
2018-05-24T02:45:31.944Z,64.12
2018-05-24T02:46:53.003Z,64.69
2018-05-24T02:47:32.099Z,64.31
2018-05-24T02:48:32.032Z,64.22
2018-05-24T02:49:32.129Z,64.02
2018-05-24T02:50:32.100Z,64.28
2018-05-24T02:51:32.121Z,65.05
2018-05-24T02:52:53.200Z,64.18
2018-05-24T02:53:32.177Z,64.95
2018-05-24T02:54:32.212Z,64.79
2018-05-24T02:55:32.240Z,65.08
2018-05-24T02:56:32.282Z,65.08
2018-05-24T02:57:32.294Z,64.18
2018-05-24T02:58:53.341Z,64.09
2018-05-24T02:59:32.351Z,64.56
2018-05-24T03:00:32.393Z,65.05
2018-05-24T03:01:32.406Z,65.33
2018-05-24T03:02:32.446Z,64.98
2018-05-24T03:03:32.530Z,65.05
2018-05-24T03:04:53.512Z,65.05
2018-05-24T03:05:32.526Z,64.95
2018-05-24T03:06:32.578Z,65.14
2018-05-24T03:07:32.594Z,65.05
2018-05-24T03:08:32.610Z,65.23
2018-05-24T03:09:32.644Z,65.14
2018-05-24T03:10:53.680Z,65.05
2018-05-24T03:11:32.700Z,65.05
2018-05-24T03:12:32.728Z,65.75
2018-05-24T03:13:32.746Z,65.27
2018-05-24T03:14:32.782Z,65.14
2018-05-24T03:15:32.818Z,64.95
2018-05-24T03:16:53.861Z,65.23
2018-05-24T03:17:32.876Z,65.05
2018-05-24T03:18:32.894Z,65.05
2018-05-24T03:19:32.930Z,65.14
2018-05-24T03:20:32.946Z,64.66
2018-05-24T03:21:32.976Z,65.05
2018-05-24T03:22:54.021Z,65.33
2018-05-24T03:23:33.060Z,65.14
2018-05-24T03:24:33.116Z,65.43
2018-05-24T03:25:33.104Z,65.05
2018-05-24T03:26:33.129Z,65.05
2018-05-24T03:27:33.162Z,65.05
2018-05-24T03:28:54.204Z,65.27
2018-05-24T03:29:33.239Z,64.66
2018-05-24T03:30:33.237Z,64.56
2018-05-24T03:31:33.267Z,65.62
2018-05-24T03:32:33.305Z,65.14
2018-05-24T03:33:33.324Z,64.85
2018-05-24T03:34:54.381Z,65.05
2018-05-24T03:35:33.382Z,65.05
2018-05-24T03:36:33.414Z,65.33
2018-05-24T03:37:33.449Z,65.43
2018-05-24T03:38:33.474Z,65.33
2018-05-24T03:39:33.513Z,65.52
2018-05-24T03:40:54.547Z,65.33
2018-05-24T03:41:33.547Z,65.62
2018-05-24T03:42:33.586Z,66.19
2018-05-24T03:43:33.627Z,65.62
2018-05-24T03:44:33.629Z,65.62
2018-05-24T03:45:33.661Z,65.52
2018-05-24T03:46:54.711Z,66.19
2018-05-24T03:47:33.881Z,65.72
2018-05-24T03:48:33.755Z,66.19
2018-05-24T03:49:33.787Z,65.62
2018-05-24T03:50:33.811Z,66.00
2018-05-24T03:51:33.887Z,66.19
2018-05-24T03:52:54.930Z,66.19
2018-05-24T03:53:33.935Z,65.81
2018-05-24T03:54:33.947Z,65.72
2018-05-24T03:55:33.953Z,66.39
2018-05-24T03:56:33.980Z,65.91
2018-05-24T03:57:33.999Z,66.39
2018-05-24T03:58:55.067Z,66.77
2018-05-24T03:59:34.065Z,66.29
2018-05-24T04:00:34.087Z,65.91
2018-05-24T04:01:34.127Z,66.10
2018-05-24T04:02:34.211Z,66.10
2018-05-24T04:03:34.176Z,66.10
2018-05-24T04:04:55.223Z,66.10
2018-05-24T04:05:34.263Z,65.72
2018-05-24T04:06:34.269Z,65.91
2018-05-24T04:07:34.297Z,65.81
2018-05-24T04:08:34.309Z,65.91
2018-05-24T04:09:34.440Z,66.58
2018-05-24T04:10:55.393Z,66.58
2018-05-24T04:11:34.413Z,66.58
2018-05-24T04:12:34.445Z,66.10
2018-05-24T04:13:34.493Z,65.91
2018-05-24T04:14:34.489Z,66.58
2018-05-24T04:15:34.531Z,66.00
2018-05-24T04:16:55.566Z,66.58
2018-05-24T04:17:34.575Z,66.58
2018-05-24T04:18:34.623Z,66.03
2018-05-24T04:19:34.641Z,66.33
2018-05-24T04:20:34.668Z,66.10
2018-05-24T04:21:34.687Z,66.13
2018-05-24T04:22:55.737Z,65.52
2018-05-24T04:23:34.764Z,66.10
2018-05-24T04:24:34.774Z,66.10
2018-05-24T04:25:34.818Z,66.10
2018-05-24T04:26:34.844Z,66.19
2018-05-24T04:27:34.886Z,66.13
2018-05-24T04:28:55.953Z,66.00
2018-05-24T04:29:34.911Z,66.39
2018-05-24T04:30:35.108Z,66.77
2018-05-24T04:31:34.985Z,67.06
2018-05-24T04:32:34.992Z,67.06
2018-05-24T04:33:35.032Z,66.80
2018-05-24T04:34:56.085Z,67.00
2018-05-24T04:35:35.083Z,66.42
2018-05-24T04:36:35.124Z,66.42
2018-05-24T04:37:35.158Z,66.58
2018-05-24T04:38:35.177Z,67.06
2018-05-24T04:39:35.289Z,66.58
2018-05-24T04:40:56.256Z,66.58
2018-05-24T04:41:35.259Z,67.16
2018-05-24T04:42:35.289Z,66.49
2018-05-24T04:43:35.327Z,66.77
2018-05-24T04:44:35.383Z,66.96
2018-05-24T04:45:35.413Z,67.35
2018-05-24T04:46:56.418Z,66.49
2018-05-24T04:47:35.433Z,67.16
2018-05-24T04:48:35.462Z,67.25
2018-05-24T04:49:36.435Z,67.16
2018-05-24T04:50:35.520Z,67.00
2018-05-24T04:51:35.538Z,66.71
2018-05-24T04:52:56.592Z,67.29
2018-05-24T04:53:35.613Z,66.71
2018-05-24T04:54:35.657Z,67.00
2018-05-24T04:55:35.666Z,66.71
2018-05-24T04:56:35.699Z,66.61
2018-05-24T04:57:35.715Z,67.00
2018-05-24T04:58:56.776Z,67.00
2018-05-24T04:59:35.786Z,66.80
2018-05-24T05:00:36.448Z,67.29
2018-05-24T05:01:35.914Z,67.09
2018-05-24T05:02:35.909Z,66.49
2018-05-24T05:03:35.889Z,67.09
2018-05-24T05:04:56.928Z,67.00
2018-05-24T05:05:35.946Z,66.77
2018-05-24T05:06:35.981Z,66.61
2018-05-24T05:07:36.018Z,66.77
2018-05-24T05:08:36.054Z,66.77
2018-05-24T05:09:36.090Z,67.44
2018-05-24T05:10:57.113Z,67.63
2018-05-24T05:11:36.205Z,67.06
2018-05-24T05:12:36.153Z,67.54
2018-05-24T05:13:36.198Z,67.44
2018-05-24T05:14:36.270Z,67.54
2018-05-24T05:15:36.296Z,67.29
2018-05-24T05:16:57.290Z,67.19
2018-05-24T05:17:36.305Z,67.16
2018-05-24T05:18:36.323Z,66.86
2018-05-24T05:19:36.398Z,66.80
2018-05-24T05:20:36.421Z,67.09
2018-05-24T05:21:36.405Z,67.09
2018-05-24T05:22:57.458Z,67.19
2018-05-24T05:23:36.477Z,66.61
2018-05-24T05:24:36.573Z,67.47
2018-05-24T05:25:36.534Z,67.38
2018-05-24T05:26:36.558Z,67.38
2018-05-24T05:27:36.610Z,67.47
2018-05-24T05:28:57.643Z,67.29
2018-05-24T05:29:36.657Z,67.09
2018-05-24T05:30:36.723Z,67.09
2018-05-24T05:31:36.696Z,67.09
2018-05-24T05:32:36.760Z,67.19
2018-05-24T05:33:36.773Z,67.16
2018-05-24T05:34:57.839Z,67.63
2018-05-24T05:35:36.819Z,67.92
2018-05-24T05:36:36.820Z,67.83
2018-05-24T05:37:36.878Z,68.21
2018-05-24T05:38:36.914Z,68.30
2018-05-24T05:39:36.926Z,68.21
2018-05-24T05:40:57.974Z,67.35
2018-05-24T05:41:36.976Z,68.85
2018-05-24T05:42:37.015Z,68.59
2018-05-24T05:43:37.056Z,68.40
2018-05-24T05:44:37.139Z,68.12
2018-05-24T05:45:37.126Z,68.40
2018-05-24T05:46:58.135Z,68.21
2018-05-24T05:47:37.187Z,68.40
2018-05-24T05:48:37.227Z,68.12
2018-05-24T05:49:37.208Z,67.25
2018-05-24T05:50:37.267Z,68.40
2018-05-24T05:51:37.282Z,68.30
2018-05-24T05:52:58.397Z,67.44
2018-05-24T05:53:37.338Z,68.40
2018-05-24T05:54:37.357Z,68.30
2018-05-24T05:55:37.396Z,68.02
2018-05-24T05:56:37.418Z,67.63
2018-05-24T05:57:37.627Z,68.69
2018-05-24T05:58:58.489Z,68.69
2018-05-24T05:59:37.533Z,68.79
2018-05-24T06:00:37.512Z,68.50
2018-05-24T06:01:37.618Z,68.40
2018-05-24T06:02:37.603Z,68.21
2018-05-24T06:03:37.687Z,68.50
2018-05-24T06:04:58.700Z,68.12
2018-05-24T06:05:37.672Z,68.21
2018-05-24T06:06:37.735Z,68.50
2018-05-24T06:07:37.722Z,68.53
2018-05-24T06:08:37.754Z,68.91
2018-05-24T06:09:38.032Z,67.86
2018-05-24T06:10:58.828Z,68.12
2018-05-24T06:11:37.840Z,68.21
2018-05-24T06:12:37.861Z,68.73
2018-05-24T06:13:37.947Z,68.15
2018-05-24T06:14:37.919Z,68.63
2018-05-24T06:15:37.947Z,67.86
2018-05-24T06:16:58.999Z,68.34
2018-05-24T06:17:38.014Z,67.76
2018-05-24T06:18:38.055Z,68.34
2018-05-24T06:19:38.090Z,67.86
2018-05-24T06:20:38.210Z,67.47
2018-05-24T06:21:38.238Z,67.99
2018-05-24T06:22:59.207Z,67.13
2018-05-24T06:23:38.192Z,67.41
2018-05-24T06:24:38.254Z,67.41
2018-05-24T06:25:38.255Z,67.03
2018-05-24T06:26:38.336Z,67.32
2018-05-24T06:27:38.284Z,67.41
2018-05-24T06:28:59.353Z,67.32
2018-05-24T06:29:38.365Z,66.33
2018-05-24T06:30:38.438Z,67.29
2018-05-24T06:31:38.427Z,67.76
2018-05-24T06:32:38.444Z,67.47
2018-05-24T06:33:38.487Z,68.05
2018-05-24T06:34:59.526Z,67.86
2018-05-24T06:35:38.604Z,67.86
2018-05-24T06:36:38.559Z,67.47
2018-05-24T06:37:38.672Z,67.86
2018-05-24T06:38:38.692Z,67.61
2018-05-24T06:39:38.698Z,67.32
2018-05-24T06:40:59.728Z,67.22
2018-05-24T06:41:38.694Z,67.32
2018-05-24T06:42:38.735Z,67.70
2018-05-24T06:43:38.783Z,67.70
2018-05-24T06:44:38.797Z,67.70
2018-05-24T06:45:38.813Z,67.51
2018-05-24T06:46:59.894Z,67.51
2018-05-24T06:47:38.869Z,67.32
2018-05-24T06:48:38.890Z,67.22
2018-05-24T06:49:38.921Z,67.99
2018-05-24T06:50:38.951Z,67.70
2018-05-24T06:51:38.980Z,67.61
2018-05-24T06:53:00.058Z,67.70
2018-05-24T06:53:39.087Z,67.70
2018-05-24T06:54:39.076Z,67.70
2018-05-24T06:55:39.109Z,67.80
2018-05-24T06:56:39.125Z,67.70
2018-05-24T06:57:39.153Z,67.51
2018-05-24T06:59:00.348Z,67.51
2018-05-24T06:59:39.228Z,67.70
2018-05-24T07:00:39.294Z,67.61
2018-05-24T07:01:39.287Z,68.37
2018-05-24T07:02:39.296Z,67.35
2018-05-24T07:03:39.327Z,67.64
2018-05-24T07:05:00.388Z,67.45
2018-05-24T07:05:39.381Z,67.16
2018-05-24T07:06:39.415Z,66.97
2018-05-24T07:07:39.464Z,66.30
2018-05-24T07:08:39.483Z,66.58
2018-05-24T07:09:39.511Z,67.16
2018-05-24T07:11:00.626Z,66.20
2018-05-24T07:11:39.561Z,66.33
2018-05-24T07:12:39.592Z,66.81
2018-05-24T07:13:39.627Z,65.37
2018-05-24T07:14:39.647Z,64.89
2018-05-24T07:15:39.667Z,64.85
2018-05-24T07:17:00.726Z,66.10
2018-05-24T07:17:39.740Z,66.10
2018-05-24T07:18:39.859Z,65.66
2018-05-24T07:19:39.795Z,65.84
2018-05-24T07:20:39.817Z,66.71
2018-05-24T07:21:39.853Z,66.81
2018-05-24T07:23:00.914Z,66.17
2018-05-24T07:23:39.899Z,65.75
2018-05-24T07:24:39.943Z,65.20
2018-05-24T07:25:39.996Z,65.11
2018-05-24T07:26:40.016Z,64.73
2018-05-24T07:27:40.026Z,64.43
2018-05-24T07:29:01.080Z,64.40
2018-05-24T07:29:40.065Z,64.22
2018-05-24T07:30:40.117Z,64.98
2018-05-24T07:31:40.134Z,65.01
2018-05-24T07:32:40.192Z,65.01
2018-05-24T07:33:40.228Z,65.01
2018-05-24T07:35:01.244Z,63.76
2018-05-24T07:35:40.277Z,62.90
2018-05-24T07:36:40.293Z,63.48
2018-05-24T07:37:40.410Z,63.67
2018-05-24T07:38:40.336Z,62.80
2018-05-24T07:39:40.385Z,63.18
2018-05-24T07:41:01.412Z,63.70
2018-05-24T07:41:40.427Z,62.93
2018-05-24T07:42:40.491Z,63.22
2018-05-24T07:43:40.472Z,62.16
2018-05-24T07:44:40.541Z,62.26
2018-05-24T07:45:40.634Z,62.41
2018-05-24T07:47:01.592Z,62.93
2018-05-24T07:47:40.607Z,62.41
2018-05-24T07:48:40.639Z,62.41
2018-05-24T07:49:40.664Z,63.12
2018-05-24T07:50:40.701Z,62.26
2018-05-24T07:51:40.737Z,62.74
2018-05-24T07:53:01.877Z,62.74
2018-05-24T07:53:40.772Z,64.47
2018-05-24T07:54:40.820Z,65.14
2018-05-24T07:55:40.829Z,65.05
2018-05-24T07:56:40.875Z,65.24
2018-05-24T07:57:40.908Z,64.76
2018-05-24T07:59:01.952Z,65.72
2018-05-24T07:59:40.955Z,67.07
2018-05-24T08:00:40.994Z,66.88
2018-05-24T08:01:41.047Z,67.35
2018-05-24T08:02:41.053Z,66.17
2018-05-24T08:03:41.064Z,65.88
2018-05-24T08:05:02.124Z,67.42
2018-05-24T08:05:41.130Z,66.94
2018-05-24T08:06:41.176Z,66.74
2018-05-24T08:07:41.186Z,66.07
2018-05-24T08:08:41.296Z,65.50
2018-05-24T08:09:41.235Z,65.01
2018-05-24T08:11:02.300Z,66.17
2018-05-24T08:11:41.325Z,66.55
2018-05-24T08:12:41.351Z,66.49
2018-05-24T08:13:41.363Z,65.91
2018-05-24T08:14:41.427Z,63.60
2018-05-24T08:15:41.422Z,64.76
2018-05-24T08:17:02.473Z,65.72
2018-05-24T08:17:41.487Z,66.30
2018-05-24T08:18:41.516Z,67.45
2018-05-24T08:19:41.594Z,67.45
2018-05-24T08:20:41.594Z,66.01
2018-05-24T08:21:41.656Z,66.58
2018-05-24T08:23:02.994Z,66.97
2018-05-24T08:23:42.838Z,66.58
2018-05-24T08:24:41.723Z,66.97
2018-05-24T08:25:41.741Z,65.72
2018-05-24T08:26:41.831Z,65.43
2018-05-24T08:27:41.791Z,66.78
2018-05-24T08:29:02.829Z,66.42
2018-05-24T08:29:41.836Z,64.59
2018-05-24T08:30:41.993Z,63.44
2018-05-24T08:31:41.932Z,63.73
2018-05-24T08:32:41.915Z,64.31
2018-05-24T08:33:42.018Z,64.31
2018-05-24T08:35:03.018Z,63.25
2018-05-24T08:35:42.046Z,61.52
2018-05-24T08:36:42.056Z,62.67
2018-05-24T08:37:42.117Z,64.73
2018-05-24T08:38:42.099Z,64.73
2018-05-24T08:39:42.136Z,63.38
2018-05-24T08:41:03.195Z,62.99
2018-05-24T08:41:42.220Z,62.35
2018-05-24T08:42:42.246Z,62.63
2018-05-24T08:43:42.292Z,62.73
2018-05-24T08:44:42.395Z,60.10
2018-05-24T08:45:42.306Z,61.68
2018-05-24T08:47:03.373Z,61.10
2018-05-24T08:47:42.375Z,60.00
2018-05-24T08:48:42.412Z,61.00
2018-05-24T08:49:42.430Z,61.96
2018-05-24T08:50:42.466Z,60.23
2018-05-24T08:51:42.489Z,59.27
2018-05-24T08:53:03.547Z,59.36
2018-05-24T08:53:42.566Z,58.97
2018-05-24T08:54:42.581Z,58.52
2018-05-24T08:55:42.654Z,57.82
2018-05-24T08:56:42.634Z,58.49
2018-05-24T08:57:42.702Z,57.53
2018-05-24T08:59:03.794Z,58.59
2018-05-24T08:59:42.717Z,60.45
2018-05-24T09:00:42.756Z,59.97
2018-05-24T09:01:42.794Z,59.48
2018-05-24T09:02:42.914Z,57.85
2018-05-24T09:03:42.849Z,58.52
2018-05-24T09:05:03.893Z,58.42
2018-05-24T09:05:42.933Z,58.36
2018-05-24T09:06:42.932Z,57.87
2018-05-24T09:07:42.970Z,58.45
2018-05-24T09:08:42.994Z,57.62
2018-05-24T09:09:43.040Z,56.52
2018-05-24T09:11:04.080Z,57.49
2018-05-24T09:11:43.095Z,57.78
2018-05-24T09:12:43.117Z,56.81
2018-05-24T09:13:43.138Z,56.52
2018-05-24T09:14:43.184Z,57.20
2018-05-24T09:15:43.194Z,56.04
2018-05-24T09:17:04.339Z,55.94
2018-05-24T09:17:43.300Z,57.20
2018-05-24T09:18:43.304Z,56.33
2018-05-24T09:19:43.319Z,55.76
2018-05-24T09:20:43.378Z,56.43
2018-05-24T09:21:43.389Z,56.84
2018-05-24T09:23:04.430Z,56.16
2018-05-24T09:23:43.433Z,56.16
2018-05-24T09:24:43.488Z,56.16
2018-05-24T09:25:43.505Z,56.74
2018-05-24T09:26:43.540Z,55.20
2018-05-24T09:27:43.573Z,55.59
2018-05-24T09:29:04.611Z,55.78
2018-05-24T09:29:43.619Z,55.98
2018-05-24T09:30:43.655Z,54.24
2018-05-24T09:31:43.681Z,54.43
2018-05-24T09:32:43.715Z,54.82
2018-05-24T09:33:43.747Z,55.40
2018-05-24T09:35:04.797Z,54.62
2018-05-24T09:35:43.859Z,54.14
2018-05-24T09:36:43.833Z,54.72
2018-05-24T09:37:43.851Z,54.36
2018-05-24T09:38:43.892Z,53.56
2018-05-24T09:39:43.970Z,53.59
2018-05-24T09:41:04.987Z,53.88
2018-05-24T09:41:43.987Z,53.59
2018-05-24T09:42:44.045Z,53.11
2018-05-24T09:43:44.054Z,53.11
2018-05-24T09:44:44.123Z,53.49
2018-05-24T09:45:44.125Z,53.81
2018-05-24T09:47:05.162Z,53.71
2018-05-24T09:47:44.185Z,52.75
2018-05-24T09:48:44.197Z,53.13
2018-05-24T09:49:44.238Z,52.26
2018-05-24T09:50:44.264Z,52.39
2018-05-24T09:51:44.314Z,50.71
2018-05-24T09:53:05.360Z,50.71
2018-05-24T09:53:44.355Z,51.87
2018-05-24T09:54:44.445Z,52.26
2018-05-24T09:55:44.505Z,51.51
2018-05-24T09:56:44.450Z,51.39
2018-05-24T09:57:44.497Z,51.97
2018-05-24T09:59:05.513Z,52.00
2018-05-24T09:59:44.558Z,52.31
2018-05-24T10:00:44.565Z,50.86
2018-05-24T10:01:44.628Z,50.09
2018-05-24T10:02:44.626Z,50.09
2018-05-24T10:03:44.710Z,49.99
2018-05-24T10:05:05.718Z,49.73
2018-05-24T10:05:44.720Z,49.24
2018-05-24T10:06:44.737Z,49.02
2018-05-24T10:07:44.775Z,49.51
2018-05-24T10:08:44.813Z,50.02
2018-05-24T10:09:44.842Z,48.95
2018-05-24T10:11:05.898Z,49.15
2018-05-24T10:11:44.910Z,49.07
2018-05-24T10:12:44.943Z,48.61
2018-05-24T10:13:44.964Z,47.94
2018-05-24T10:14:45.005Z,46.87
2018-05-24T10:15:45.036Z,46.67
2018-05-24T10:17:06.091Z,47.26
2018-05-24T10:17:45.140Z,46.67
2018-05-24T10:18:45.111Z,46.67
2018-05-24T10:19:45.145Z,46.89
2018-05-24T10:20:45.189Z,47.36
2018-05-24T10:21:45.226Z,47.11
2018-05-24T10:25:49.498Z,45.99
2018-05-24T10:26:49.525Z,45.51
2018-05-24T10:27:49.568Z,44.46
2018-05-24T10:28:49.599Z,43.68
2018-05-24T10:29:49.651Z,43.59
2018-05-24T10:31:10.677Z,43.80
2018-05-24T10:31:49.695Z,43.08
2018-05-24T10:32:49.728Z,44.30
2018-05-24T10:33:49.804Z,44.78
2018-05-24T10:34:49.782Z,45.32
2018-05-24T10:35:49.823Z,46.58
2018-05-24T10:37:10.904Z,45.71
2018-05-24T10:37:49.914Z,45.75
2018-05-24T10:38:49.951Z,45.65
2018-05-24T10:39:49.955Z,45.27
2018-05-24T10:40:49.985Z,44.98
2018-05-24T10:41:50.002Z,45.68
2018-05-24T10:43:11.065Z,44.95
2018-05-24T10:43:50.081Z,43.84
2018-05-24T10:44:50.155Z,44.13
2018-05-24T10:45:50.197Z,44.44
2018-05-24T10:46:50.174Z,43.74
2018-05-24T10:47:50.352Z,43.43
2018-05-24T10:49:11.262Z,44.76
2018-05-24T10:49:50.295Z,44.57
2018-05-24T10:50:50.312Z,44.47
2018-05-24T10:51:50.342Z,44.76
2018-05-24T10:52:50.375Z,45.20
2018-05-24T10:53:50.408Z,43.45
2018-05-24T10:55:11.469Z,43.95
2018-05-24T10:55:50.466Z,42.81
2018-05-24T10:56:50.671Z,42.30
2018-05-24T10:57:50.543Z,42.50
2018-05-24T10:58:50.594Z,42.99
2018-05-24T10:59:50.601Z,43.98
2018-05-24T11:01:11.663Z,43.68
2018-05-24T11:01:50.678Z,42.74
2018-05-24T11:02:50.709Z,41.38
2018-05-24T11:03:50.751Z,41.26
2018-05-24T11:04:50.777Z,42.21
2018-05-24T11:05:50.808Z,42.60
2018-05-24T11:07:11.933Z,42.43
2018-05-24T11:07:50.879Z,41.26
2018-05-24T11:08:50.910Z,41.16
2018-05-24T11:09:50.950Z,41.94
2018-05-24T11:10:50.976Z,41.38
2018-05-24T11:11:51.025Z,41.36
2018-05-24T11:13:12.069Z,41.14
2018-05-24T11:13:51.081Z,40.87
2018-05-24T11:14:51.116Z,41.26
2018-05-24T11:15:51.176Z,41.08
2018-05-24T11:16:51.195Z,41.47
2018-05-24T11:17:51.217Z,41.18
2018-05-24T11:19:12.297Z,41.57
2018-05-24T11:19:51.313Z,40.99
2018-05-24T11:20:51.337Z,41.26
2018-05-24T11:21:51.373Z,42.25
2018-05-24T11:22:51.394Z,40.58
2018-05-24T11:23:51.444Z,42.35
2018-05-24T11:25:12.503Z,42.54
2018-05-24T11:25:51.512Z,41.43
2018-05-24T11:26:51.558Z,42.21
2018-05-24T11:27:51.577Z,41.51
2018-05-24T11:28:51.608Z,42.09
2018-05-24T11:29:51.655Z,42.29
2018-05-24T11:31:12.690Z,42.65
2018-05-24T11:31:51.740Z,42.63
2018-05-24T11:32:51.823Z,43.72
2018-05-24T11:33:51.768Z,43.82
2018-05-24T11:34:51.819Z,43.82
2018-05-24T11:35:51.836Z,43.62
2018-05-24T11:37:13.008Z,42.72
2018-05-24T11:37:51.913Z,43.02
2018-05-24T11:38:51.941Z,43.41
2018-05-24T11:39:52.087Z,43.29
2018-05-24T11:40:52.013Z,44.37
2018-05-24T11:41:52.106Z,44.16
2018-05-24T11:43:13.195Z,43.79
2018-05-24T11:43:53.092Z,44.09
2018-05-24T11:44:52.124Z,44.86
2018-05-24T11:45:52.161Z,44.27
2018-05-24T11:46:52.218Z,43.99
2018-05-24T11:47:52.247Z,43.02
2018-05-24T11:49:13.284Z,42.71
2018-05-24T11:49:52.293Z,43.77
2018-05-24T11:50:52.390Z,43.58
2018-05-24T11:51:52.368Z,43.58
2018-05-24T11:52:52.403Z,44.06
2018-05-24T11:53:52.480Z,43.55
2018-05-24T11:55:13.494Z,43.55
2018-05-24T11:55:52.482Z,43.65
2018-05-24T11:56:52.526Z,43.37
2018-05-24T11:57:52.563Z,44.04
2018-05-24T11:58:52.610Z,43.46
2018-05-24T11:59:52.638Z,44.40
2018-05-24T12:01:13.684Z,43.92
2018-05-24T12:01:52.772Z,44.21
2018-05-24T12:02:52.745Z,44.31
2018-05-24T12:03:52.745Z,43.24
2018-05-24T12:04:52.780Z,43.73
2018-05-24T12:05:52.819Z,44.02
2018-05-24T12:07:13.898Z,43.23
2018-05-24T12:07:52.876Z,43.90
2018-05-24T12:08:52.914Z,44.60
2018-05-24T12:09:52.973Z,43.90
2018-05-24T12:10:52.960Z,44.38
2018-05-24T12:11:53.015Z,45.45
2018-05-24T12:13:14.062Z,45.25
2018-05-24T12:13:53.059Z,45.25
2018-05-24T12:14:53.089Z,44.77
2018-05-24T12:15:53.131Z,44.77
2018-05-24T12:16:53.164Z,44.67
2018-05-24T12:17:53.188Z,44.40
2018-05-24T12:19:14.289Z,44.60
2018-05-24T12:19:53.273Z,45.28
2018-05-24T12:20:53.290Z,44.02
2018-05-24T12:21:53.309Z,43.54
2018-05-24T12:22:53.349Z,44.21
2018-05-24T12:23:53.396Z,44.50
2018-05-24T12:25:15.219Z,43.54
2018-05-24T12:25:53.486Z,43.54
2018-05-24T12:26:53.490Z,43.54
2018-05-24T12:27:53.529Z,43.44
2018-05-24T12:28:53.552Z,42.57
2018-05-24T12:29:53.569Z,42.66
2018-05-24T12:31:14.610Z,43.44
2018-05-24T12:31:53.623Z,44.12
2018-05-24T12:32:53.674Z,44.12
2018-05-24T12:33:53.709Z,43.34
2018-05-24T12:34:53.717Z,43.82
2018-05-24T12:35:53.756Z,43.44
2018-05-24T12:37:14.810Z,43.54
2018-05-24T12:37:53.824Z,44.12
2018-05-24T12:38:53.880Z,44.21
2018-05-24T12:39:53.985Z,43.73
2018-05-24T12:40:53.920Z,43.92
2018-05-24T12:41:54.039Z,44.21
2018-05-24T12:43:15.002Z,44.02
2018-05-24T12:43:54.004Z,44.02
2018-05-24T12:44:54.044Z,44.21
2018-05-24T12:45:54.065Z,43.73
2018-05-24T12:46:54.101Z,43.44
2018-05-24T12:47:54.124Z,43.63
2018-05-24T12:49:15.181Z,43.92
2018-05-24T12:49:54.193Z,44.40
2018-05-24T12:50:54.302Z,43.54
2018-05-24T12:51:54.257Z,43.63
2018-05-24T12:52:54.302Z,44.02
2018-05-24T12:53:54.320Z,44.79
2018-05-24T12:55:15.366Z,44.02
2018-05-24T12:55:54.373Z,43.63